sensor_id;sensor_type;location;lat;lon;timestamp;temperature;humidity
12874;DHT22;6505;51.114;13.128;2023-06-24T00:01:03;23.70;67.20
12874;DHT22;6505;51.114;13.128;2023-06-24T00:03:31;23.70;67.40
12874;DHT22;6505;51.114;13.128;2023-06-24T00:06:05;23.70;67.30
12874;DHT22;6505;51.114;13.128;2023-06-24T00:08:33;23.70;67.30
12874;DHT22;6505;51.114;13.128;2023-06-24T00:11:03;23.70;67.60
12874;DHT22;6505;51.114;13.128;2023-06-24T00:13:32;23.60;67.60
12874;DHT22;6505;51.114;13.128;2023-06-24T00:16:00;23.70;67.80
12874;DHT22;6505;51.114;13.128;2023-06-24T00:18:28;23.70;67.70
12874;DHT22;6505;51.114;13.128;2023-06-24T00:20:57;23.70;67.80
12874;DHT22;6505;51.114;13.128;2023-06-24T00:23:26;23.70;67.90
12874;DHT22;6505;51.114;13.128;2023-06-24T00:25:54;23.70;67.90
12874;DHT22;6505;51.114;13.128;2023-06-24T00:28:23;23.70;68.10
12874;DHT22;6505;51.114;13.128;2023-06-24T00:30:51;23.70;68.30
12874;DHT22;6505;51.114;13.128;2023-06-24T00:33:20;23.70;67.70
12874;DHT22;6505;51.114;13.128;2023-06-24T00:35:49;23.70;68.30
12874;DHT22;6505;51.114;13.128;2023-06-24T00:38:17;23.70;68.40
12874;DHT22;6505;51.114;13.128;2023-06-24T00:40:46;23.70;68.30
12874;DHT22;6505;51.114;13.128;2023-06-24T00:43:14;23.70;68.40
12874;DHT22;6505;51.114;13.128;2023-06-24T00:45:42;23.70;68.40
12874;DHT22;6505;51.114;13.128;2023-06-24T00:48:12;23.70;68.40
12874;DHT22;6505;51.114;13.128;2023-06-24T00:50:40;23.70;68.40
12874;DHT22;6505;51.114;13.128;2023-06-24T00:53:12;23.70;68.40
12874;DHT22;6505;51.114;13.128;2023-06-24T00:55:40;23.70;68.40
12874;DHT22;6505;51.114;13.128;2023-06-24T00:58:09;23.70;68.40
12874;DHT22;6505;51.114;13.128;2023-06-24T01:00:37;23.70;68.40
12874;DHT22;6505;51.114;13.128;2023-06-24T01:03:05;23.70;68.40
12874;DHT22;6505;51.114;13.128;2023-06-24T01:05:34;23.70;68.40
12874;DHT22;6505;51.114;13.128;2023-06-24T01:08:03;23.60;68.30
12874;DHT22;6505;51.114;13.128;2023-06-24T01:10:31;23.60;68.40
12874;DHT22;6505;51.114;13.128;2023-06-24T01:12:59;23.70;68.60
12874;DHT22;6505;51.114;13.128;2023-06-24T01:15:28;23.60;68.60
12874;DHT22;6505;51.114;13.128;2023-06-24T01:18:00;23.70;68.80
12874;DHT22;6505;51.114;13.128;2023-06-24T01:20:36;23.60;68.80
12874;DHT22;6505;51.114;13.128;2023-06-24T01:30:10;23.70;68.90
12874;DHT22;6505;51.114;13.128;2023-06-24T01:32:54;23.70;68.80
12874;DHT22;6505;51.114;13.128;2023-06-24T01:35:30;23.70;68.90
12874;DHT22;6505;51.114;13.128;2023-06-24T01:38:08;23.60;68.90
12874;DHT22;6505;51.114;13.128;2023-06-24T01:40:44;23.60;68.90
12874;DHT22;6505;51.114;13.128;2023-06-24T01:43:29;23.60;68.90
12874;DHT22;6505;51.114;13.128;2023-06-24T01:45:59;23.80;69.10
12874;DHT22;6505;51.114;13.128;2023-06-24T01:48:34;23.60;68.80
12874;DHT22;6505;51.114;13.128;2023-06-24T01:51:08;23.60;68.90
12874;DHT22;6505;51.114;13.128;2023-06-24T01:53:42;23.60;68.90
12874;DHT22;6505;51.114;13.128;2023-06-24T01:56:20;23.60;68.70
12874;DHT22;6505;51.114;13.128;2023-06-24T01:58:53;23.60;68.60
12874;DHT22;6505;51.114;13.128;2023-06-24T02:01:24;23.60;67.90
12874;DHT22;6505;51.114;13.128;2023-06-24T02:03:54;23.60;68.60
12874;DHT22;6505;51.114;13.128;2023-06-24T02:06:24;23.60;68.40
12874;DHT22;6505;51.114;13.128;2023-06-24T02:08:57;23.60;68.40
12874;DHT22;6505;51.114;13.128;2023-06-24T02:11:28;23.60;68.40
12874;DHT22;6505;51.114;13.128;2023-06-24T02:13:59;23.60;68.50
12874;DHT22;6505;51.114;13.128;2023-06-24T02:16:31;23.60;68.40
12874;DHT22;6505;51.114;13.128;2023-06-24T02:19:03;23.60;68.50
12874;DHT22;6505;51.114;13.128;2023-06-24T02:21:33;23.60;68.40
12874;DHT22;6505;51.114;13.128;2023-06-24T02:24:03;23.60;68.40
12874;DHT22;6505;51.114;13.128;2023-06-24T02:26:32;23.60;68.40
12874;DHT22;6505;51.114;13.128;2023-06-24T02:29:04;23.60;68.30
12874;DHT22;6505;51.114;13.128;2023-06-24T02:31:32;23.60;68.10
12874;DHT22;6505;51.114;13.128;2023-06-24T02:34:02;23.60;67.90
12874;DHT22;6505;51.114;13.128;2023-06-24T02:36:30;23.60;67.90
12874;DHT22;6505;51.114;13.128;2023-06-24T02:38:58;23.60;67.90
12874;DHT22;6505;51.114;13.128;2023-06-24T02:41:26;23.50;67.60
12874;DHT22;6505;51.114;13.128;2023-06-24T02:43:54;23.50;67.50
12874;DHT22;6505;51.114;13.128;2023-06-24T02:46:22;23.50;67.40
12874;DHT22;6505;51.114;13.128;2023-06-24T02:48:52;23.50;67.40
12874;DHT22;6505;51.114;13.128;2023-06-24T02:51:22;23.50;67.20
12874;DHT22;6505;51.114;13.128;2023-06-24T02:53:51;23.50;67.20
12874;DHT22;6505;51.114;13.128;2023-06-24T02:56:29;23.50;67.30
12874;DHT22;6505;51.114;13.128;2023-06-24T02:58:58;23.50;67.10
12874;DHT22;6505;51.114;13.128;2023-06-24T03:01:26;23.50;66.90
12874;DHT22;6505;51.114;13.128;2023-06-24T03:03:56;23.40;66.80
12874;DHT22;6505;51.114;13.128;2023-06-24T03:06:26;23.50;66.90
12874;DHT22;6505;51.114;13.128;2023-06-24T03:08:59;23.50;66.90
12874;DHT22;6505;51.114;13.128;2023-06-24T03:11:28;23.40;66.60
12874;DHT22;6505;51.114;13.128;2023-06-24T03:13:59;23.40;66.60
12874;DHT22;6505;51.114;13.128;2023-06-24T03:16:36;23.40;66.60
12874;DHT22;6505;51.114;13.128;2023-06-24T03:19:14;23.50;66.60
12874;DHT22;6505;51.114;13.128;2023-06-24T03:21:43;23.40;66.40
12874;DHT22;6505;51.114;13.128;2023-06-24T03:24:14;23.40;66.40
12874;DHT22;6505;51.114;13.128;2023-06-24T03:26:46;23.40;66.30
12874;DHT22;6505;51.114;13.128;2023-06-24T03:29:16;23.40;66.30
12874;DHT22;6505;51.114;13.128;2023-06-24T03:31:53;23.40;66.30
12874;DHT22;6505;51.114;13.128;2023-06-24T03:34:25;23.40;66.50
12874;DHT22;6505;51.114;13.128;2023-06-24T03:37:02;23.40;66.50
12874;DHT22;6505;51.114;13.128;2023-06-24T03:39:34;23.30;66.70
12874;DHT22;6505;51.114;13.128;2023-06-24T03:42:02;23.30;66.50
12874;DHT22;6505;51.114;13.128;2023-06-24T03:44:31;23.40;66.70
12874;DHT22;6505;51.114;13.128;2023-06-24T03:47:01;23.40;66.90
12874;DHT22;6505;51.114;13.128;2023-06-24T03:49:29;23.30;67.10
12874;DHT22;6505;51.114;13.128;2023-06-24T03:52:00;23.30;68.20
12874;DHT22;6505;51.114;13.128;2023-06-24T03:54:28;23.30;67.80
12874;DHT22;6505;51.114;13.128;2023-06-24T03:56:56;23.40;68.10
12874;DHT22;6505;51.114;13.128;2023-06-24T03:59:24;23.30;68.00
12874;DHT22;6505;51.114;13.128;2023-06-24T04:01:54;23.30;68.10
12874;DHT22;6505;51.114;13.128;2023-06-24T04:04:23;23.30;68.30
12874;DHT22;6505;51.114;13.128;2023-06-24T04:06:51;23.30;68.60
12874;DHT22;6505;51.114;13.128;2023-06-24T04:09:21;23.40;68.90
12874;DHT22;6505;51.114;13.128;2023-06-24T04:11:52;23.30;69.00
12874;DHT22;6505;51.114;13.128;2023-06-24T04:14:20;23.30;68.90
12874;DHT22;6505;51.114;13.128;2023-06-24T04:16:48;23.30;69.20
12874;DHT22;6505;51.114;13.128;2023-06-24T04:19:16;23.30;69.10
12874;DHT22;6505;51.114;13.128;2023-06-24T04:21:44;23.30;69.00
12874;DHT22;6505;51.114;13.128;2023-06-24T04:24:12;23.30;69.00
12874;DHT22;6505;51.114;13.128;2023-06-24T04:26:42;23.40;69.10
12874;DHT22;6505;51.114;13.128;2023-06-24T04:29:10;23.40;69.20
12874;DHT22;6505;51.114;13.128;2023-06-24T04:31:38;23.40;69.30
12874;DHT22;6505;51.114;13.128;2023-06-24T04:34:06;23.40;69.20
12874;DHT22;6505;51.114;13.128;2023-06-24T04:36:34;23.30;69.20
12874;DHT22;6505;51.114;13.128;2023-06-24T04:39:02;23.30;69.20
12874;DHT22;6505;51.114;13.128;2023-06-24T04:41:30;23.40;69.20
12874;DHT22;6505;51.114;13.128;2023-06-24T04:44:00;23.40;69.40
12874;DHT22;6505;51.114;13.128;2023-06-24T04:46:28;23.40;69.30
12874;DHT22;6505;51.114;13.128;2023-06-24T04:48:56;23.30;69.20
12874;DHT22;6505;51.114;13.128;2023-06-24T04:51:24;23.30;69.10
12874;DHT22;6505;51.114;13.128;2023-06-24T04:53:52;23.40;69.10
12874;DHT22;6505;51.114;13.128;2023-06-24T04:56:21;23.40;68.90
12874;DHT22;6505;51.114;13.128;2023-06-24T04:58:49;23.30;68.80
12874;DHT22;6505;51.114;13.128;2023-06-24T05:01:19;23.40;68.90
12874;DHT22;6505;51.114;13.128;2023-06-24T05:03:47;23.40;68.90
12874;DHT22;6505;51.114;13.128;2023-06-24T05:06:15;23.40;68.70
12874;DHT22;6505;51.114;13.128;2023-06-24T05:08:43;23.40;68.70
12874;DHT22;6505;51.114;13.128;2023-06-24T05:11:11;23.40;68.80
12874;DHT22;6505;51.114;13.128;2023-06-24T05:13:40;23.40;69.00
12874;DHT22;6505;51.114;13.128;2023-06-24T05:16:07;23.40;68.90
12874;DHT22;6505;51.114;13.128;2023-06-24T05:18:37;23.40;68.90
12874;DHT22;6505;51.114;13.128;2023-06-24T05:21:05;23.40;69.10
12874;DHT22;6505;51.114;13.128;2023-06-24T05:23:33;23.40;69.80
12874;DHT22;6505;51.114;13.128;2023-06-24T05:26:01;23.50;69.10
12874;DHT22;6505;51.114;13.128;2023-06-24T05:28:28;23.40;69.00
12874;DHT22;6505;51.114;13.128;2023-06-24T05:30:57;23.50;68.90
12874;DHT22;6505;51.114;13.128;2023-06-24T05:33:25;23.40;68.60
12874;DHT22;6505;51.114;13.128;2023-06-24T05:35:54;23.50;69.50
12874;DHT22;6505;51.114;13.128;2023-06-24T05:38:22;23.40;68.00
12874;DHT22;6505;51.114;13.128;2023-06-24T05:40:50;23.50;68.80
12874;DHT22;6505;51.114;13.128;2023-06-24T05:43:18;23.50;68.70
12874;DHT22;6505;51.114;13.128;2023-06-24T05:45:46;23.50;68.90
12874;DHT22;6505;51.114;13.128;2023-06-24T05:48:14;23.50;69.20
12874;DHT22;6505;51.114;13.128;2023-06-24T05:50:42;23.60;69.50
12874;DHT22;6505;51.114;13.128;2023-06-24T05:53:11;23.60;69.60
12874;DHT22;6505;51.114;13.128;2023-06-24T05:55:39;23.60;69.40
12874;DHT22;6505;51.114;13.128;2023-06-24T05:58:07;23.60;69.40
12874;DHT22;6505;51.114;13.128;2023-06-24T06:00:36;23.60;69.10
12874;DHT22;6505;51.114;13.128;2023-06-24T06:03:04;23.60;69.00
12874;DHT22;6505;51.114;13.128;2023-06-24T06:05:32;23.60;68.90
12874;DHT22;6505;51.114;13.128;2023-06-24T06:08:01;23.60;68.70
12874;DHT22;6505;51.114;13.128;2023-06-24T06:10:30;23.60;68.30
12874;DHT22;6505;51.114;13.128;2023-06-24T06:12:58;23.60;68.30
12874;DHT22;6505;51.114;13.128;2023-06-24T06:15:26;23.60;68.30
12874;DHT22;6505;51.114;13.128;2023-06-24T06:17:54;23.60;68.30
12874;DHT22;6505;51.114;13.128;2023-06-24T06:20:22;23.70;69.00
12874;DHT22;6505;51.114;13.128;2023-06-24T06:22:50;23.70;68.90
12874;DHT22;6505;51.114;13.128;2023-06-24T06:25:17;23.70;68.50
12874;DHT22;6505;51.114;13.128;2023-06-24T06:27:47;23.80;68.40
12874;DHT22;6505;51.114;13.128;2023-06-24T06:30:15;23.90;68.40
12874;DHT22;6505;51.114;13.128;2023-06-24T06:32:43;23.90;68.60
12874;DHT22;6505;51.114;13.128;2023-06-24T06:35:11;24.00;68.20
12874;DHT22;6505;51.114;13.128;2023-06-24T06:37:39;24.10;68.00
12874;DHT22;6505;51.114;13.128;2023-06-24T06:40:08;24.20;67.70
12874;DHT22;6505;51.114;13.128;2023-06-24T06:42:36;24.30;67.80
12874;DHT22;6505;51.114;13.128;2023-06-24T06:45:07;24.40;67.20
12874;DHT22;6505;51.114;13.128;2023-06-24T06:47:35;24.50;66.80
12874;DHT22;6505;51.114;13.128;2023-06-24T06:50:04;24.60;66.60
12874;DHT22;6505;51.114;13.128;2023-06-24T06:52:33;24.70;66.20
12874;DHT22;6505;51.114;13.128;2023-06-24T06:55:01;24.90;65.90
12874;DHT22;6505;51.114;13.128;2023-06-24T06:57:29;24.90;65.10
12874;DHT22;6505;51.114;13.128;2023-06-24T06:59:57;25.00;64.00
12874;DHT22;6505;51.114;13.128;2023-06-24T07:02:26;25.10;63.80
12874;DHT22;6505;51.114;13.128;2023-06-24T07:04:54;25.20;63.70
12874;DHT22;6505;51.114;13.128;2023-06-24T07:07:22;25.30;63.70
12874;DHT22;6505;51.114;13.128;2023-06-24T07:09:50;25.40;64.80
12874;DHT22;6505;51.114;13.128;2023-06-24T07:12:18;25.50;63.90
12874;DHT22;6505;51.114;13.128;2023-06-24T07:14:47;25.70;63.30
12874;DHT22;6505;51.114;13.128;2023-06-24T07:17:15;25.80;62.50
12874;DHT22;6505;51.114;13.128;2023-06-24T07:19:45;26.00;61.40
12874;DHT22;6505;51.114;13.128;2023-06-24T07:22:13;26.10;60.70
12874;DHT22;6505;51.114;13.128;2023-06-24T07:24:41;26.20;60.30
12874;DHT22;6505;51.114;13.128;2023-06-24T07:27:09;26.40;59.50
12874;DHT22;6505;51.114;13.128;2023-06-24T07:29:37;26.50;59.00
12874;DHT22;6505;51.114;13.128;2023-06-24T07:32:06;26.60;58.70
12874;DHT22;6505;51.114;13.128;2023-06-24T07:34:35;26.60;58.70
12874;DHT22;6505;51.114;13.128;2023-06-24T07:37:04;26.70;58.20
12874;DHT22;6505;51.114;13.128;2023-06-24T07:39:49;26.80;57.30
12874;DHT22;6505;51.114;13.128;2023-06-24T07:42:17;26.80;57.00
12874;DHT22;6505;51.114;13.128;2023-06-24T07:44:46;26.80;57.00
12874;DHT22;6505;51.114;13.128;2023-06-24T07:47:14;26.80;56.80
12874;DHT22;6505;51.114;13.128;2023-06-24T07:49:44;26.70;56.70
12874;DHT22;6505;51.114;13.128;2023-06-24T07:52:13;26.70;56.80
12874;DHT22;6505;51.114;13.128;2023-06-24T07:54:41;26.80;57.00
12874;DHT22;6505;51.114;13.128;2023-06-24T07:57:10;26.80;57.00
12874;DHT22;6505;51.114;13.128;2023-06-24T07:59:38;26.80;56.00
12874;DHT22;6505;51.114;13.128;2023-06-24T08:02:05;26.90;55.70
12874;DHT22;6505;51.114;13.128;2023-06-24T08:04:33;26.90;56.50
12874;DHT22;6505;51.114;13.128;2023-06-24T08:07:02;27.00;55.60
12874;DHT22;6505;51.114;13.128;2023-06-24T08:09:32;27.10;55.60
12874;DHT22;6505;51.114;13.128;2023-06-24T08:12:00;27.10;55.60
12874;DHT22;6505;51.114;13.128;2023-06-24T08:14:28;27.30;55.30
12874;DHT22;6505;51.114;13.128;2023-06-24T08:16:56;27.40;55.30
12874;DHT22;6505;51.114;13.128;2023-06-24T08:19:24;27.60;55.00
12874;DHT22;6505;51.114;13.128;2023-06-24T08:21:52;27.60;54.40
12874;DHT22;6505;51.114;13.128;2023-06-24T08:24:20;27.80;54.10
12874;DHT22;6505;51.114;13.128;2023-06-24T08:26:50;27.90;54.20
12874;DHT22;6505;51.114;13.128;2023-06-24T08:29:19;27.90;53.40
12874;DHT22;6505;51.114;13.128;2023-06-24T08:31:47;28.10;52.80
12874;DHT22;6505;51.114;13.128;2023-06-24T08:34:15;28.10;52.50
12874;DHT22;6505;51.114;13.128;2023-06-24T08:36:43;28.10;52.60
12874;DHT22;6505;51.114;13.128;2023-06-24T08:39:11;28.10;52.70
12874;DHT22;6505;51.114;13.128;2023-06-24T08:41:39;28.20;52.70
12874;DHT22;6505;51.114;13.128;2023-06-24T08:44:11;28.20;52.50
12874;DHT22;6505;51.114;13.128;2023-06-24T08:46:40;28.20;52.50
12874;DHT22;6505;51.114;13.128;2023-06-24T08:49:14;28.20;52.40
12874;DHT22;6505;51.114;13.128;2023-06-24T08:51:54;28.20;51.80
12874;DHT22;6505;51.114;13.128;2023-06-24T08:54:30;28.20;51.40
12874;DHT22;6505;51.114;13.128;2023-06-24T08:57:02;28.20;51.90
12874;DHT22;6505;51.114;13.128;2023-06-24T08:59:34;28.20;51.90
12874;DHT22;6505;51.114;13.128;2023-06-24T09:02:03;28.20;52.10
12874;DHT22;6505;51.114;13.128;2023-06-24T09:04:32;28.20;52.20
12874;DHT22;6505;51.114;13.128;2023-06-24T09:07:00;28.20;52.30
12874;DHT22;6505;51.114;13.128;2023-06-24T09:09:30;28.20;51.90
12874;DHT22;6505;51.114;13.128;2023-06-24T09:11:59;28.30;51.60
12874;DHT22;6505;51.114;13.128;2023-06-24T09:14:29;28.30;51.70
12874;DHT22;6505;51.114;13.128;2023-06-24T09:17:00;28.40;51.70
12874;DHT22;6505;51.114;13.128;2023-06-24T09:19:30;28.50;51.20
12874;DHT22;6505;51.114;13.128;2023-06-24T09:22:02;28.50;50.60
12874;DHT22;6505;51.114;13.128;2023-06-24T09:24:31;28.60;50.20
12874;DHT22;6505;51.114;13.128;2023-06-24T09:27:00;28.60;50.50
12874;DHT22;6505;51.114;13.128;2023-06-24T09:29:31;28.60;50.50
12874;DHT22;6505;51.114;13.128;2023-06-24T09:32:04;28.60;50.10
12874;DHT22;6505;51.114;13.128;2023-06-24T09:34:33;28.60;50.60
12874;DHT22;6505;51.114;13.128;2023-06-24T09:37:01;28.60;50.40
12874;DHT22;6505;51.114;13.128;2023-06-24T09:39:36;28.50;50.00
12874;DHT22;6505;51.114;13.128;2023-06-24T09:42:06;28.50;50.10
12874;DHT22;6505;51.114;13.128;2023-06-24T09:44:34;28.50;49.90
12874;DHT22;6505;51.114;13.128;2023-06-24T09:47:05;28.40;49.90
12874;DHT22;6505;51.114;13.128;2023-06-24T09:49:33;28.30;49.40
12874;DHT22;6505;51.114;13.128;2023-06-24T09:52:04;28.30;49.10
12874;DHT22;6505;51.114;13.128;2023-06-24T09:54:34;28.30;49.60
12874;DHT22;6505;51.114;13.128;2023-06-24T09:57:05;28.30;49.20
12874;DHT22;6505;51.114;13.128;2023-06-24T09:59:39;28.20;48.70
12874;DHT22;6505;51.114;13.128;2023-06-24T10:02:13;28.20;48.60
12874;DHT22;6505;51.114;13.128;2023-06-24T10:04:43;28.10;48.70
12874;DHT22;6505;51.114;13.128;2023-06-24T10:07:13;28.10;48.70
12874;DHT22;6505;51.114;13.128;2023-06-24T10:09:42;28.10;48.50
12874;DHT22;6505;51.114;13.128;2023-06-24T10:12:10;28.00;48.00
12874;DHT22;6505;51.114;13.128;2023-06-24T10:14:38;28.00;48.20
12874;DHT22;6505;51.114;13.128;2023-06-24T10:17:06;28.00;48.60
12874;DHT22;6505;51.114;13.128;2023-06-24T10:19:39;27.90;48.60
12874;DHT22;6505;51.114;13.128;2023-06-24T10:22:09;27.90;48.70
12874;DHT22;6505;51.114;13.128;2023-06-24T10:24:39;27.90;48.80
12874;DHT22;6505;51.114;13.128;2023-06-24T10:27:14;27.80;48.80
12874;DHT22;6505;51.114;13.128;2023-06-24T10:29:45;27.80;48.80
12874;DHT22;6505;51.114;13.128;2023-06-24T10:32:15;27.80;48.60
12874;DHT22;6505;51.114;13.128;2023-06-24T10:34:45;27.80;49.30
12874;DHT22;6505;51.114;13.128;2023-06-24T10:37:18;27.70;48.80
12874;DHT22;6505;51.114;13.128;2023-06-24T10:39:49;27.70;48.30
12874;DHT22;6505;51.114;13.128;2023-06-24T10:42:32;27.70;48.40
12874;DHT22;6505;51.114;13.128;2023-06-24T10:45:17;27.70;49.10
12874;DHT22;6505;51.114;13.128;2023-06-24T10:47:47;27.70;49.30
12874;DHT22;6505;51.114;13.128;2023-06-24T10:50:19;27.60;49.20
12874;DHT22;6505;51.114;13.128;2023-06-24T10:52:49;27.60;49.20
12874;DHT22;6505;51.114;13.128;2023-06-24T10:55:23;27.60;49.50
12874;DHT22;6505;51.114;13.128;2023-06-24T10:57:52;27.60;49.50
12874;DHT22;6505;51.114;13.128;2023-06-24T11:00:21;27.60;48.70
12874;DHT22;6505;51.114;13.128;2023-06-24T11:02:49;27.60;48.60
12874;DHT22;6505;51.114;13.128;2023-06-24T11:05:18;27.60;48.70
12874;DHT22;6505;51.114;13.128;2023-06-24T11:07:46;27.60;48.80
12874;DHT22;6505;51.114;13.128;2023-06-24T11:10:15;27.50;48.50
12874;DHT22;6505;51.114;13.128;2023-06-24T11:12:43;27.50;48.30
12874;DHT22;6505;51.114;13.128;2023-06-24T11:15:13;27.50;48.40
12874;DHT22;6505;51.114;13.128;2023-06-24T11:17:41;27.50;49.30
12874;DHT22;6505;51.114;13.128;2023-06-24T11:20:11;27.50;48.80
12874;DHT22;6505;51.114;13.128;2023-06-24T11:22:43;27.40;48.60
12874;DHT22;6505;51.114;13.128;2023-06-24T11:25:15;27.40;48.40
12874;DHT22;6505;51.114;13.128;2023-06-24T11:27:44;27.40;48.20
12874;DHT22;6505;51.114;13.128;2023-06-24T11:30:13;27.40;48.50
12874;DHT22;6505;51.114;13.128;2023-06-24T11:32:42;27.40;48.40
12874;DHT22;6505;51.114;13.128;2023-06-24T11:35:12;27.40;49.00
12874;DHT22;6505;51.114;13.128;2023-06-24T11:37:45;27.40;48.80
12874;DHT22;6505;51.114;13.128;2023-06-24T11:40:18;27.30;48.70
12874;DHT22;6505;51.114;13.128;2023-06-24T11:42:48;27.30;49.10
12874;DHT22;6505;51.114;13.128;2023-06-24T11:45:20;27.40;49.80
12874;DHT22;6505;51.114;13.128;2023-06-24T11:47:49;27.30;50.10
12874;DHT22;6505;51.114;13.128;2023-06-24T11:50:25;27.30;49.40
12874;DHT22;6505;51.114;13.128;2023-06-24T11:52:56;27.30;49.10
12874;DHT22;6505;51.114;13.128;2023-06-24T11:55:25;27.30;49.10
12874;DHT22;6505;51.114;13.128;2023-06-24T11:57:57;27.20;49.10
12874;DHT22;6505;51.114;13.128;2023-06-24T12:00:28;27.20;47.70
12874;DHT22;6505;51.114;13.128;2023-06-24T12:02:59;27.20;47.60
12874;DHT22;6505;51.114;13.128;2023-06-24T12:05:30;27.20;47.80
12874;DHT22;6505;51.114;13.128;2023-06-24T12:08:01;27.20;47.90
12874;DHT22;6505;51.114;13.128;2023-06-24T12:10:33;27.20;47.60
12874;DHT22;6505;51.114;13.128;2023-06-24T12:13:03;27.20;48.00
12874;DHT22;6505;51.114;13.128;2023-06-24T12:15:35;27.20;48.30
12874;DHT22;6505;51.114;13.128;2023-06-24T12:18:03;27.10;48.90
12874;DHT22;6505;51.114;13.128;2023-06-24T12:20:32;27.10;48.90
12874;DHT22;6505;51.114;13.128;2023-06-24T12:23:06;27.20;49.10
12874;DHT22;6505;51.114;13.128;2023-06-24T12:25:35;27.10;49.30
12874;DHT22;6505;51.114;13.128;2023-06-24T12:28:03;27.10;49.70
12874;DHT22;6505;51.114;13.128;2023-06-24T12:30:31;27.10;49.70
12874;DHT22;6505;51.114;13.128;2023-06-24T12:33:00;27.10;49.20
12874;DHT22;6505;51.114;13.128;2023-06-24T12:35:29;27.10;49.00
12874;DHT22;6505;51.114;13.128;2023-06-24T12:37:57;27.10;48.80
12874;DHT22;6505;51.114;13.128;2023-06-24T12:40:26;27.10;48.60
12874;DHT22;6505;51.114;13.128;2023-06-24T12:42:54;27.10;48.90
12874;DHT22;6505;51.114;13.128;2023-06-24T12:45:24;27.10;49.00
12874;DHT22;6505;51.114;13.128;2023-06-24T12:47:52;27.10;48.90
12874;DHT22;6505;51.114;13.128;2023-06-24T12:50:20;27.10;48.90
12874;DHT22;6505;51.114;13.128;2023-06-24T12:52:48;27.10;48.90
12874;DHT22;6505;51.114;13.128;2023-06-24T12:55:16;27.10;48.50
12874;DHT22;6505;51.114;13.128;2023-06-24T12:57:46;27.10;48.40
12874;DHT22;6505;51.114;13.128;2023-06-24T13:00:15;27.10;48.70
12874;DHT22;6505;51.114;13.128;2023-06-24T13:02:43;27.10;48.80
12874;DHT22;6505;51.114;13.128;2023-06-24T13:05:11;27.10;48.90
12874;DHT22;6505;51.114;13.128;2023-06-24T13:07:39;27.10;49.50
12874;DHT22;6505;51.114;13.128;2023-06-24T13:10:08;27.20;49.10
12874;DHT22;6505;51.114;13.128;2023-06-24T13:12:37;27.10;49.50
12874;DHT22;6505;51.114;13.128;2023-06-24T13:15:07;27.00;48.90
12874;DHT22;6505;51.114;13.128;2023-06-24T13:17:37;27.10;48.40
12874;DHT22;6505;51.114;13.128;2023-06-24T13:20:06;27.00;48.40
12874;DHT22;6505;51.114;13.128;2023-06-24T13:22:35;27.10;48.60
12874;DHT22;6505;51.114;13.128;2023-06-24T13:25:04;27.10;48.60
12874;DHT22;6505;51.114;13.128;2023-06-24T13:27:32;27.00;48.70
12874;DHT22;6505;51.114;13.128;2023-06-24T13:30:03;27.00;48.50
12874;DHT22;6505;51.114;13.128;2023-06-24T13:32:32;27.00;48.10
12874;DHT22;6505;51.114;13.128;2023-06-24T13:35:00;27.10;48.10
12874;DHT22;6505;51.114;13.128;2023-06-24T13:37:28;27.00;48.10
12874;DHT22;6505;51.114;13.128;2023-06-24T13:39:56;27.00;48.50
12874;DHT22;6505;51.114;13.128;2023-06-24T13:42:25;27.00;48.10
12874;DHT22;6505;51.114;13.128;2023-06-24T13:44:53;27.00;47.90
12874;DHT22;6505;51.114;13.128;2023-06-24T13:47:21;27.00;48.20
12874;DHT22;6505;51.114;13.128;2023-06-24T13:49:51;27.00;48.20
12874;DHT22;6505;51.114;13.128;2023-06-24T13:52:19;27.00;48.30
12874;DHT22;6505;51.114;13.128;2023-06-24T13:54:47;27.00;48.30
12874;DHT22;6505;51.114;13.128;2023-06-24T13:57:16;27.00;48.70
12874;DHT22;6505;51.114;13.128;2023-06-24T13:59:44;27.00;48.30
12874;DHT22;6505;51.114;13.128;2023-06-24T14:02:12;27.00;48.50
12874;DHT22;6505;51.114;13.128;2023-06-24T14:04:40;27.00;48.60
12874;DHT22;6505;51.114;13.128;2023-06-24T14:07:09;27.00;48.70
12874;DHT22;6505;51.114;13.128;2023-06-24T14:09:38;27.00;48.60
12874;DHT22;6505;51.114;13.128;2023-06-24T14:12:07;27.00;48.60
12874;DHT22;6505;51.114;13.128;2023-06-24T14:14:36;27.00;48.80
12874;DHT22;6505;51.114;13.128;2023-06-24T14:17:06;27.00;48.40
12874;DHT22;6505;51.114;13.128;2023-06-24T14:19:38;27.00;48.30
12874;DHT22;6505;51.114;13.128;2023-06-24T14:22:07;27.00;48.50
12874;DHT22;6505;51.114;13.128;2023-06-24T14:24:36;27.00;47.90
12874;DHT22;6505;51.114;13.128;2023-06-24T14:27:06;27.00;47.40
12874;DHT22;6505;51.114;13.128;2023-06-24T14:29:35;27.00;47.50
12874;DHT22;6505;51.114;13.128;2023-06-24T14:32:03;27.10;47.70
12874;DHT22;6505;51.114;13.128;2023-06-24T14:34:32;27.00;47.20
12874;DHT22;6505;51.114;13.128;2023-06-24T14:37:00;27.00;46.60
12874;DHT22;6505;51.114;13.128;2023-06-24T14:39:28;27.00;46.50
12874;DHT22;6505;51.114;13.128;2023-06-24T14:41:58;27.00;46.60
12874;DHT22;6505;51.114;13.128;2023-06-24T14:44:26;27.00;45.80
12874;DHT22;6505;51.114;13.128;2023-06-24T14:46:54;27.00;46.50
12874;DHT22;6505;51.114;13.128;2023-06-24T14:49:22;27.00;46.20
12874;DHT22;6505;51.114;13.128;2023-06-24T14:51:51;27.00;46.10
12874;DHT22;6505;51.114;13.128;2023-06-24T14:54:19;27.00;46.60
12874;DHT22;6505;51.114;13.128;2023-06-24T14:56:47;27.10;46.30
12874;DHT22;6505;51.114;13.128;2023-06-24T14:59:17;27.00;46.20
12874;DHT22;6505;51.114;13.128;2023-06-24T15:01:45;27.00;46.50
12874;DHT22;6505;51.114;13.128;2023-06-24T15:04:13;27.00;46.70
12874;DHT22;6505;51.114;13.128;2023-06-24T15:06:40;27.00;46.70
12874;DHT22;6505;51.114;13.128;2023-06-24T15:09:08;27.00;46.80
12874;DHT22;6505;51.114;13.128;2023-06-24T15:11:36;27.10;47.00
12874;DHT22;6505;51.114;13.128;2023-06-24T15:14:04;27.00;47.10
12874;DHT22;6505;51.114;13.128;2023-06-24T15:16:33;27.00;47.30
12874;DHT22;6505;51.114;13.128;2023-06-24T15:19:01;27.00;47.40
12874;DHT22;6505;51.114;13.128;2023-06-24T15:21:29;27.10;47.40
12874;DHT22;6505;51.114;13.128;2023-06-24T15:24:03;27.10;47.50
12874;DHT22;6505;51.114;13.128;2023-06-24T15:26:32;27.00;47.50
12874;DHT22;6505;51.114;13.128;2023-06-24T15:29:00;27.00;46.70
12874;DHT22;6505;51.114;13.128;2023-06-24T15:31:28;27.10;46.50
12874;DHT22;6505;51.114;13.128;2023-06-24T15:33:57;27.10;46.40
12874;DHT22;6505;51.114;13.128;2023-06-24T15:36:25;27.10;46.00
12874;DHT22;6505;51.114;13.128;2023-06-24T15:38:55;27.10;46.30
12874;DHT22;6505;51.114;13.128;2023-06-24T15:41:24;27.10;46.70
12874;DHT22;6505;51.114;13.128;2023-06-24T15:43:52;27.10;46.70
12874;DHT22;6505;51.114;13.128;2023-06-24T15:46:20;27.10;46.90
12874;DHT22;6505;51.114;13.128;2023-06-24T15:48:49;27.10;47.10
12874;DHT22;6505;51.114;13.128;2023-06-24T15:51:19;27.10;47.00